createdAt,value
2016-04-05T00:00:58.858Z,0
2016-04-05T00:01:58.844Z,0
2016-04-05T00:02:58.879Z,0
2016-04-05T00:03:58.882Z,0
2016-04-05T00:04:58.916Z,0
2016-04-05T00:05:58.934Z,0
2016-04-05T00:06:58.969Z,0
2016-04-05T00:07:58.971Z,0
2016-04-05T00:08:59.005Z,0
2016-04-05T00:09:58.991Z,0
2016-04-05T00:10:58.885Z,0
2016-04-05T00:11:59.060Z,0
2016-04-05T00:12:59.062Z,0
2016-04-05T00:13:59.081Z,0
2016-04-05T00:14:59.098Z,0
2016-04-05T00:15:59.132Z,0
2016-04-05T00:16:59.151Z,0
2016-04-05T00:17:59.153Z,0
2016-04-05T00:18:59.188Z,0
2016-04-05T00:20:03.534Z,0
2016-04-05T00:20:59.240Z,0
2016-04-05T00:21:59.243Z,0
2016-04-05T00:22:59.276Z,0
2016-04-05T00:23:59.279Z,0
2016-04-05T00:24:59.156Z,0
2016-04-05T00:25:59.316Z,0
2016-04-05T00:26:59.350Z,0
2016-04-05T00:27:59.197Z,0
2016-04-05T00:28:59.372Z,0
2016-04-05T00:29:59.405Z,0
2016-04-05T00:30:59.423Z,0
2016-04-05T00:31:59.442Z,0
2016-04-05T00:32:59.461Z,0
2016-04-05T00:33:59.478Z,0
2016-04-05T00:34:59.513Z,0
2016-04-05T00:35:59.515Z,0
2016-04-05T00:36:59.549Z,0
2016-04-05T00:37:59.551Z,0
2016-04-05T00:38:59.601Z,0
2016-04-05T00:39:59.604Z,0
2016-04-05T00:40:59.466Z,0
2016-04-05T00:41:59.688Z,0
2016-04-05T00:42:59.674Z,0
2016-04-05T00:43:59.677Z,0
2016-04-05T00:44:59.710Z,0
2016-04-05T00:45:59.713Z,0
2016-04-05T00:46:59.716Z,4
2016-04-05T00:47:59.750Z,0
2016-04-05T00:48:59.784Z,0
2016-04-05T00:49:59.817Z,0
2016-04-05T00:50:59.836Z,0
2016-04-05T00:51:59.839Z,0
2016-04-05T00:52:59.841Z,0
2016-04-05T00:53:59.907Z,0
2016-04-05T00:54:59.894Z,0
2016-04-05T00:55:59.912Z,0
2016-04-05T00:56:59.947Z,0
2016-04-05T00:57:59.933Z,0
2016-04-05T00:58:59.967Z,0
2016-04-05T00:59:59.985Z,0
2016-04-05T01:01:00.003Z,0
2016-04-05T01:02:00.022Z,0
2016-04-05T01:03:00.041Z,0
2016-04-05T01:04:00.075Z,0
2016-04-05T01:05:00.109Z,0
2016-04-05T01:06:00.142Z,0
2016-04-05T01:07:00.161Z,0
2016-04-05T01:08:00.147Z,0
2016-04-05T01:09:00.150Z,0
2016-04-05T01:10:00.185Z,0
2016-04-05T01:11:00.202Z,0
2016-04-05T01:12:00.221Z,0
2016-04-05T01:13:00.254Z,0
2016-04-05T01:14:00.257Z,0
2016-04-05T01:15:00.291Z,0
2016-04-05T01:16:00.293Z,0
2016-04-05T01:17:00.312Z,0
2016-04-05T01:18:00.331Z,0
2016-04-05T01:19:00.349Z,0
2016-04-05T01:20:00.384Z,0
2016-04-05T01:21:00.401Z,0
2016-04-05T01:22:00.264Z,0
2016-04-05T01:23:00.437Z,0
2016-04-05T01:24:00.440Z,0
2016-04-05T01:25:00.490Z,0
2016-04-05T01:26:00.492Z,0
2016-04-05T01:27:00.511Z,0
2016-04-05T01:28:00.530Z,0
2016-04-05T01:29:00.532Z,0
2016-04-05T01:30:00.566Z,0
2016-04-05T01:31:00.600Z,0
2016-04-05T01:32:00.603Z,0
2016-04-05T01:33:00.622Z,0
2016-04-05T01:34:00.639Z,0
2016-04-05T01:35:00.658Z,0
2016-04-05T01:36:00.660Z,0
2016-04-05T01:37:00.710Z,0
2016-04-05T01:38:00.713Z,0
2016-04-05T01:39:00.746Z,0
2016-04-05T01:40:00.750Z,0
2016-04-05T01:41:00.783Z,0
2016-04-05T01:42:00.802Z,0
2016-04-05T01:43:00.821Z,0
2016-04-05T01:44:00.823Z,0
2016-04-05T01:45:00.857Z,0
2016-04-05T01:46:01.396Z,0
2016-04-05T01:47:01.030Z,0
2016-04-05T01:48:02.610Z,0
2016-04-05T01:49:02.269Z,0
2016-04-05T01:50:00.966Z,0
2016-04-05T01:51:00.984Z,0
2016-04-05T01:52:01.003Z,0
2016-04-05T01:53:01.006Z,0
2016-04-05T01:54:01.023Z,0
2016-04-05T01:55:01.043Z,0
2016-04-05T01:56:01.061Z,0
2016-04-05T01:57:01.095Z,0
2016-04-05T01:58:01.081Z,0
2016-04-05T01:59:01.131Z,0
2016-04-05T02:00:01.197Z,0
2016-04-05T02:01:01.153Z,0
2016-04-05T02:02:01.186Z,0
2016-04-05T02:03:01.189Z,0
2016-04-05T02:04:01.208Z,0
2016-04-05T02:07:01.278Z,0
2016-04-05T02:08:01.286Z,0
2016-04-05T02:09:01.320Z,0
2016-04-05T02:10:01.322Z,0
2016-04-05T02:11:01.356Z,0
2016-04-05T02:12:01.374Z,0
2016-04-05T02:13:01.393Z,0
2016-04-05T02:14:01.396Z,0
2016-04-05T02:15:01.460Z,0
2016-04-05T02:16:01.432Z,0
2016-04-05T02:17:01.512Z,0
2016-04-05T02:18:01.484Z,0
2016-04-05T02:19:01.502Z,0
2016-04-05T02:20:01.505Z,0
2016-04-05T02:21:01.555Z,0
2016-04-05T02:22:01.589Z,0
2016-04-05T02:23:01.576Z,0
2016-04-05T02:24:01.595Z,0
2016-04-05T02:25:01.612Z,0
2016-04-05T02:26:01.662Z,0
2016-04-05T02:27:01.648Z,0
2016-04-05T02:28:01.667Z,0
2016-04-05T02:29:01.701Z,0
2016-04-05T02:30:01.860Z,0
2016-04-05T02:31:01.739Z,0
2016-04-05T02:32:01.756Z,0
2016-04-05T02:33:01.775Z,0
2016-04-05T02:34:01.808Z,0
2016-04-05T02:35:01.827Z,0
2016-04-05T02:36:01.845Z,0
2016-04-05T02:37:01.864Z,0
2016-04-05T02:38:01.866Z,0
2016-04-05T02:39:01.916Z,0
2016-04-05T02:40:01.902Z,0
2016-04-05T02:41:01.952Z,0
2016-04-05T02:42:01.955Z,0
2016-04-05T02:43:01.973Z,0
2016-04-05T02:44:01.992Z,0
2016-04-05T02:45:02.087Z,0
2016-04-05T02:46:02.030Z,0
2016-04-05T02:47:02.020Z,0
2016-04-05T02:48:02.026Z,0
2016-04-05T02:49:02.047Z,0
2016-04-05T02:50:02.053Z,0
2016-04-05T02:51:02.052Z,0
2016-04-05T02:52:02.065Z,0
2016-04-05T02:53:02.157Z,0
2016-04-05T02:54:02.093Z,0
2016-04-05T02:55:02.138Z,0
2016-04-05T02:56:02.124Z,0
2016-04-05T02:57:02.172Z,0
2016-04-05T02:58:02.157Z,0
2016-04-05T02:59:02.189Z,0
2016-04-05T03:00:02.456Z,0
2016-04-05T03:01:02.224Z,0
2016-04-05T03:02:02.226Z,0
2016-04-05T03:03:02.274Z,0
2016-04-05T03:04:02.308Z,0
2016-04-05T03:05:02.341Z,0
2016-04-05T03:06:02.328Z,0
2016-04-05T03:07:02.205Z,0
2016-04-05T03:08:02.349Z,0
2016-04-05T03:09:02.368Z,0
2016-04-05T03:10:02.402Z,0
2016-04-05T03:11:02.405Z,0
2016-04-05T03:12:02.438Z,0
2016-04-05T03:13:02.457Z,0
2016-04-05T03:14:02.507Z,0
2016-04-05T03:15:02.540Z,0
2016-04-05T03:16:02.527Z,0
2016-04-05T03:17:02.515Z,0
2016-04-05T03:18:02.548Z,0
2016-04-05T03:19:02.566Z,0
2016-04-05T03:20:02.584Z,0
2016-04-05T03:21:02.603Z,0
2016-04-05T03:22:02.606Z,0
2016-04-05T03:23:02.640Z,0
2016-04-05T03:24:02.673Z,0
2016-04-05T03:25:02.536Z,0
2016-04-05T03:26:02.710Z,0
2016-04-05T03:27:02.745Z,0
2016-04-05T03:28:02.731Z,0
2016-04-05T03:29:02.765Z,0
2016-04-05T03:30:03.143Z,0
2016-04-05T03:31:02.818Z,0
2016-04-05T03:32:02.821Z,0
2016-04-05T03:33:02.839Z,0
2016-04-05T03:34:02.857Z,0
2016-04-05T03:35:02.876Z,0
2016-04-05T03:36:02.875Z,0
2016-04-05T03:37:02.941Z,0
2016-04-05T03:38:02.927Z,0
2016-04-05T03:39:02.931Z,0
2016-04-05T03:40:02.964Z,0
2016-04-05T03:41:02.983Z,0
2016-04-05T03:42:03.016Z,0
2016-04-05T03:43:03.019Z,0
2016-04-05T03:44:03.038Z,0
2016-04-05T03:45:03.447Z,0
2016-04-05T03:46:03.152Z,0
2016-04-05T03:47:03.093Z,0
2016-04-05T03:48:03.205Z,0
2016-04-05T03:49:03.146Z,0
2016-04-05T03:50:03.226Z,0
2016-04-05T03:51:03.182Z,0
2016-04-05T03:52:03.215Z,0
2016-04-05T03:53:03.202Z,0
2016-04-05T03:54:03.268Z,0
2016-04-05T03:55:03.240Z,0
2016-04-05T03:56:03.305Z,0
2016-04-05T03:57:03.276Z,0
2016-04-05T03:58:03.310Z,0
2016-04-05T03:59:03.312Z,0
2016-04-05T04:00:03.003Z,0
2016-04-05T04:01:03.364Z,0
2016-04-05T04:02:03.383Z,0
2016-04-05T04:03:03.401Z,0
2016-04-05T04:04:03.435Z,0
2016-04-05T04:05:02.688Z,0
2016-04-05T04:06:03.472Z,0
2016-04-05T04:07:03.475Z,0
2016-04-05T04:08:03.509Z,0
2016-04-05T04:09:03.511Z,0
2016-04-05T04:10:03.530Z,0
2016-04-05T04:11:03.548Z,0
2016-04-05T04:12:03.567Z,0
2016-04-05T04:13:03.600Z,0
2016-04-05T04:14:03.603Z,0
2016-04-05T04:15:03.746Z,0
2016-04-05T04:16:03.639Z,0
2016-04-05T04:17:03.658Z,0
2016-04-05T04:18:03.691Z,0
2016-04-05T04:19:03.710Z,0
2016-04-05T04:20:03.729Z,0
2016-04-05T04:21:03.731Z,0
2016-04-05T04:22:03.765Z,0
2016-04-05T04:23:03.626Z,0
2016-04-05T04:24:03.801Z,0
2016-04-05T04:25:03.820Z,0
2016-04-05T04:26:03.854Z,0
2016-04-05T04:27:03.857Z,0
2016-04-05T04:28:03.875Z,0
2016-04-05T04:29:03.909Z,4
2016-04-05T04:30:04.083Z,4
2016-04-05T04:31:03.945Z,4
2016-04-05T04:32:03.964Z,0
2016-04-05T04:33:03.982Z,4
2016-04-05T04:34:03.985Z,4
2016-04-05T04:35:04.003Z,4
2016-04-05T04:36:04.052Z,4
2016-04-05T04:37:04.071Z,8
2016-04-05T04:38:04.073Z,4
2016-04-05T04:39:04.092Z,8
2016-04-05T04:40:04.111Z,12
2016-04-05T04:41:04.128Z,8
2016-04-05T04:42:04.147Z,12
2016-04-05T04:43:04.166Z,12
2016-04-05T04:44:04.183Z,16
2016-04-05T04:45:04.233Z,12
2016-04-05T04:46:04.236Z,16
2016-04-05T04:47:04.239Z,16
2016-04-05T04:48:04.257Z,20
2016-04-05T04:49:04.291Z,20
2016-04-05T04:50:04.324Z,20
2016-04-05T04:51:04.171Z,24
2016-04-05T04:52:04.377Z,24
2016-04-05T04:53:04.363Z,28
2016-04-05T04:54:04.383Z,32
2016-04-05T04:55:04.416Z,36
2016-04-05T04:56:04.450Z,36
2016-04-05T04:57:04.438Z,44
2016-04-05T04:58:04.487Z,44
2016-04-05T04:59:04.490Z,52
2016-04-05T05:00:04.367Z,60
2016-04-05T05:01:04.526Z,68
2016-04-05T05:02:04.529Z,80
2016-04-05T05:03:04.562Z,92
2016-04-05T05:04:04.565Z,104
2016-04-05T05:05:04.600Z,116
2016-04-05T05:06:04.633Z,124
2016-04-05T05:07:04.636Z,136
2016-04-05T05:08:04.654Z,144
2016-04-05T05:09:04.673Z,152
2016-04-05T05:10:04.706Z,156
2016-04-05T05:11:04.709Z,164
2016-04-05T05:12:04.728Z,172
2016-04-05T05:13:04.777Z,172
2016-04-05T05:14:04.764Z,180
2016-04-05T05:15:04.798Z,184
2016-04-05T05:16:04.801Z,196
2016-04-05T05:17:04.835Z,204
2016-04-05T05:18:04.852Z,212
2016-04-05T05:19:04.872Z,228
2016-04-05T05:20:04.874Z,240
2016-04-05T05:21:04.907Z,256
2016-04-05T05:22:04.927Z,272
2016-04-05T05:23:04.944Z,292
2016-04-05T05:24:04.979Z,316
2016-04-05T05:25:04.982Z,344
2016-04-05T05:26:04.999Z,368
2016-04-05T05:27:05.018Z,400
2016-04-05T05:28:05.037Z,432
2016-04-05T05:29:05.071Z,464
2016-04-05T05:30:05.073Z,492
2016-04-05T05:31:05.107Z,520
2016-04-05T05:32:05.109Z,544
2016-04-05T05:33:05.143Z,564
2016-04-05T05:34:05.146Z,584
2016-04-05T05:35:05.180Z,592
2016-04-05T05:36:05.198Z,608
2016-04-05T05:37:05.217Z,608
2016-04-05T05:38:08.250Z,600
2016-04-05T05:39:05.254Z,592
2016-04-05T05:40:05.256Z,580
2016-04-05T05:41:05.289Z,564
2016-04-05T05:42:05.325Z,552
2016-04-05T05:43:05.342Z,536
2016-04-05T05:44:05.376Z,524
2016-04-05T05:45:05.411Z,512
2016-04-05T05:46:05.444Z,504
2016-04-05T05:47:05.400Z,496
2016-04-05T05:48:05.433Z,488
2016-04-05T05:49:05.452Z,492
2016-04-05T05:50:05.548Z,488
2016-04-05T05:51:05.473Z,484
2016-04-05T05:52:05.538Z,480
2016-04-05T05:53:05.510Z,468
2016-04-05T05:54:05.575Z,448
2016-04-05T05:55:05.546Z,444
2016-04-05T05:56:05.580Z,440
2016-04-05T05:57:05.599Z,436
2016-04-05T05:58:05.632Z,432
2016-04-05T05:59:05.651Z,436
2016-04-05T06:00:05.669Z,440
2016-04-05T06:01:05.672Z,444
2016-04-05T06:02:05.690Z,452
2016-04-05T06:03:05.723Z,460
2016-04-05T06:04:05.727Z,476
2016-04-05T06:05:05.745Z,484
2016-04-05T06:06:05.778Z,492
2016-04-05T06:07:05.798Z,496
2016-04-05T06:08:05.815Z,500
2016-04-05T06:09:05.834Z,492
2016-04-05T06:10:05.868Z,496
2016-04-05T06:11:05.886Z,492
2016-04-05T06:12:05.889Z,488
2016-04-05T06:13:05.908Z,488
2016-04-05T06:14:05.941Z,488
2016-04-05T06:15:05.944Z,484
2016-04-05T06:16:05.978Z,492
2016-04-05T06:17:05.230Z,504
2016-04-05T06:18:06.014Z,520
2016-04-05T06:19:06.049Z,540
2016-04-05T06:20:06.051Z,560
2016-04-05T06:21:06.085Z,568
2016-04-05T06:22:06.088Z,576
2016-04-05T06:23:06.106Z,572
2016-04-05T06:24:06.125Z,560
2016-04-05T06:25:06.143Z,544
2016-04-05T06:26:06.192Z,528
2016-04-05T06:27:06.211Z,512
2016-04-05T06:28:06.229Z,496
2016-04-05T06:29:06.231Z,480
2016-04-05T06:30:06.313Z,464
2016-04-05T06:31:06.268Z,452
2016-04-05T06:32:06.302Z,448
2016-04-05T06:33:06.304Z,448
2016-04-05T06:34:06.385Z,444
2016-04-05T06:35:06.342Z,440
2016-04-05T06:36:06.406Z,440
2016-04-05T06:37:06.378Z,444
2016-04-05T06:38:06.428Z,452
2016-04-05T06:39:06.431Z,460
2016-04-05T06:40:06.511Z,476
2016-04-05T06:41:06.467Z,492
2016-04-05T06:42:06.532Z,516
2016-04-05T06:43:06.488Z,548
2016-04-05T06:44:06.522Z,580
2016-04-05T06:45:06.556Z,616
2016-04-05T06:46:06.575Z,660
2016-04-05T06:47:06.577Z,704
2016-04-05T06:48:06.579Z,752
2016-04-05T06:49:06.614Z,792
2016-04-05T06:50:06.647Z,828
2016-04-05T06:51:06.666Z,852
2016-04-05T06:52:06.669Z,880
2016-04-05T06:53:06.686Z,904
2016-04-05T06:54:06.705Z,928
2016-04-05T06:55:06.739Z,948
2016-04-05T06:56:06.741Z,976
2016-04-05T06:57:06.760Z,1008
2016-04-05T06:58:06.794Z,1056
2016-04-05T06:59:06.796Z,1112
2016-04-05T07:00:06.815Z,1172
2016-04-05T07:01:06.693Z,1232
2016-04-05T07:02:06.867Z,1284
2016-04-05T07:03:06.885Z,1320
2016-04-05T07:04:06.920Z,1352
2016-04-05T07:05:06.906Z,1360
2016-04-05T07:06:06.956Z,1356
2016-04-05T07:07:06.959Z,1360
2016-04-05T07:08:06.994Z,1364
2016-04-05T07:09:07.013Z,1368
2016-04-05T07:10:07.031Z,1360
2016-04-05T07:11:07.033Z,1360
2016-04-05T07:12:07.083Z,1336
2016-04-05T07:13:07.086Z,1292
2016-04-05T07:14:07.089Z,1252
2016-04-05T07:15:07.122Z,1212
2016-04-05T07:16:07.157Z,1172
2016-04-05T07:17:07.175Z,1136
2016-04-05T07:18:07.209Z,1104
2016-04-05T07:19:07.211Z,1076
2016-04-05T07:20:07.230Z,1060
2016-04-05T07:21:07.233Z,1048
2016-04-05T07:22:07.235Z,1044
2016-04-05T07:23:07.269Z,1052
2016-04-05T07:24:07.288Z,1080
2016-04-05T07:25:07.306Z,1100
2016-04-05T07:26:07.340Z,1116
2016-04-05T07:27:06.607Z,1120
2016-04-05T07:28:06.610Z,1128
2016-04-05T07:29:07.410Z,1148
2016-04-05T07:30:07.412Z,1168
2016-04-05T07:31:07.432Z,1188
2016-04-05T07:32:07.450Z,1208
2016-04-05T07:33:07.483Z,1224
2016-04-05T07:34:07.486Z,1232
2016-04-05T07:35:07.520Z,1248
2016-04-05T07:36:07.523Z,1264
2016-04-05T07:37:07.556Z,1268
2016-04-05T07:38:07.592Z,1292
2016-04-05T07:39:07.594Z,1340
2016-04-05T07:40:07.596Z,1392
2016-04-05T07:41:07.630Z,1428
2016-04-05T07:42:07.617Z,1436
2016-04-05T07:43:07.683Z,1408
2016-04-05T07:44:07.685Z,1368
2016-04-05T07:45:07.703Z,1312
2016-04-05T07:46:07.722Z,1264
2016-04-05T07:47:07.740Z,1220
2016-04-05T07:48:07.774Z,1212
2016-04-05T07:49:07.777Z,1236
2016-04-05T07:50:07.811Z,1300
2016-04-05T07:51:07.813Z,1368
2016-04-05T07:52:07.863Z,1424
2016-04-05T07:53:07.866Z,1440
2016-04-05T07:54:07.884Z,1436
2016-04-05T07:55:07.918Z,1424
2016-04-05T07:56:07.936Z,1420
2016-04-05T07:57:07.938Z,1424
2016-04-05T07:58:07.957Z,1440
2016-04-05T07:59:07.976Z,1452
2016-04-05T08:00:08.025Z,1452
2016-04-05T08:01:08.012Z,1436
2016-04-05T08:02:08.045Z,1416
2016-04-05T08:03:08.096Z,1392
2016-04-05T08:04:08.067Z,1364
2016-04-05T08:05:08.085Z,1364
2016-04-05T08:06:08.120Z,1372
2016-04-05T08:07:08.137Z,1376
2016-04-05T08:08:08.156Z,1392
2016-04-05T08:09:08.175Z,1432
2016-04-05T08:10:08.223Z,1516
2016-04-05T08:11:08.226Z,1616
2016-04-05T08:12:08.260Z,1716
2016-04-05T08:13:08.264Z,1764
2016-04-05T08:14:08.297Z,1744
2016-04-05T08:15:08.300Z,1732
2016-04-05T08:16:08.364Z,1720
2016-04-05T08:17:08.367Z,1688
2016-04-05T08:18:08.355Z,1772
2016-04-05T08:19:08.388Z,1852
2016-04-05T08:20:08.392Z,1856
2016-04-05T08:21:08.425Z,1796
2016-04-05T08:22:08.427Z,1752
2016-04-05T08:23:08.462Z,1812
2016-04-05T08:24:08.495Z,1928
2016-04-05T08:25:08.499Z,2072
2016-04-05T08:26:08.563Z,2184
2016-04-05T08:27:08.582Z,2236
2016-04-05T08:28:08.585Z,2252
2016-04-05T08:29:08.618Z,2280
2016-04-05T08:30:08.606Z,2324
2016-04-05T08:31:08.624Z,2320
2016-04-05T08:32:08.642Z,2384
2016-04-05T08:33:08.660Z,2576
2016-04-05T08:34:08.710Z,2760
2016-04-05T08:35:08.713Z,3000
2016-04-05T08:36:08.747Z,2996
2016-04-05T08:37:08.734Z,2764
2016-04-05T08:38:08.767Z,2668
2016-04-05T08:39:08.786Z,2684
2016-04-05T08:40:08.789Z,2772
2016-04-05T08:41:08.822Z,2892
2016-04-05T08:42:08.826Z,3092
2016-04-05T08:43:08.844Z,3188
2016-04-05T08:44:08.877Z,3228
2016-04-05T08:45:08.896Z,3228
2016-04-05T08:46:08.914Z,3244
2016-04-05T08:47:08.933Z,3436
2016-04-05T08:48:08.950Z,3656
2016-04-05T08:49:08.970Z,3604
2016-04-05T08:50:08.988Z,3340
2016-04-05T08:51:09.005Z,3044
2016-04-05T08:52:09.024Z,2856
2016-04-05T08:53:09.057Z,2768
2016-04-05T08:54:08.921Z,2588
2016-04-05T08:55:09.094Z,2404
2016-04-05T08:56:09.113Z,2380
2016-04-05T08:57:09.132Z,2520
2016-04-05T08:58:09.149Z,2592
2016-04-05T08:59:09.168Z,2768
2016-04-05T09:00:09.171Z,2976
2016-04-05T09:01:08.454Z,3208
2016-04-05T09:02:09.238Z,3316
2016-04-05T09:03:09.241Z,3416
2016-04-05T09:04:09.291Z,3520
2016-04-05T09:05:09.293Z,3868
2016-04-05T09:06:09.328Z,4060
2016-04-05T09:07:09.330Z,4136
2016-04-05T09:08:09.364Z,4176
2016-04-05T09:09:09.367Z,3812
2016-04-05T09:10:09.405Z,3820
2016-04-05T09:11:09.425Z,3784
2016-04-05T09:12:09.442Z,3588
2016-04-05T09:13:09.461Z,3108
2016-04-05T09:14:09.557Z,2680
2016-04-05T09:15:09.622Z,2464
2016-04-05T09:16:09.656Z,2424
2016-04-05T09:17:09.658Z,2580
2016-04-05T09:18:09.661Z,2892
2016-04-05T09:19:09.696Z,3408
2016-04-05T09:20:09.730Z,3660
2016-04-05T09:21:10.122Z,3812
2016-04-05T09:22:09.719Z,4008
2016-04-05T09:23:09.660Z,4100
2016-04-05T09:24:09.709Z,4068
2016-04-05T09:25:09.712Z,3908
2016-04-05T09:26:09.745Z,3772
2016-04-05T09:27:09.764Z,3672
2016-04-05T09:28:09.782Z,3656
2016-04-05T09:29:09.801Z,3588
2016-04-05T09:30:09.771Z,3488
2016-04-05T09:31:10.040Z,3220
2016-04-05T09:32:09.856Z,2868
2016-04-05T09:33:09.873Z,2576
2016-04-05T09:34:09.892Z,2380
2016-04-05T09:35:09.910Z,2252
2016-04-05T09:36:09.929Z,2208
2016-04-05T09:37:09.948Z,2196
2016-04-05T09:38:09.965Z,2244
2016-04-05T09:39:10.406Z,2244
2016-04-05T09:40:10.017Z,2236
2016-04-05T09:41:10.051Z,2300
2016-04-05T09:42:10.038Z,2408
2016-04-05T09:43:10.089Z,2580
2016-04-05T09:44:10.091Z,2712
2016-04-05T09:45:10.124Z,2804
2016-04-05T09:46:10.299Z,2752
2016-04-05T09:47:10.161Z,2696
2016-04-05T09:48:10.179Z,2572
2016-04-05T09:49:10.197Z,2464
2016-04-05T09:50:10.233Z,2376
2016-04-05T09:51:10.250Z,2348
2016-04-05T09:52:10.252Z,2296
2016-04-05T09:53:10.272Z,2228
2016-04-05T09:54:10.321Z,2132
2016-04-05T09:55:10.324Z,2020
2016-04-05T09:56:10.341Z,1912
2016-04-05T09:57:10.407Z,1872
2016-04-05T09:58:10.410Z,1964
2016-04-05T09:59:10.428Z,2052
2016-04-05T10:00:10.431Z,2084
2016-04-05T10:01:10.558Z,2068
2016-04-05T10:02:10.452Z,2084
2016-04-05T10:03:10.485Z,2032
2016-04-05T10:04:10.535Z,1940
2016-04-05T10:05:10.553Z,1892
2016-04-05T10:06:10.572Z,1812
2016-04-05T10:07:10.636Z,1876
2016-04-05T10:08:10.577Z,1884
2016-04-05T10:09:10.595Z,1812
2016-04-05T10:10:10.628Z,1780
2016-04-05T10:11:10.663Z,1752
2016-04-05T10:12:10.775Z,1752
2016-04-05T10:13:10.747Z,1756
2016-04-05T10:14:10.765Z,1644
2016-04-05T10:15:10.737Z,1548
2016-04-05T10:16:10.692Z,1516
2016-04-05T10:17:10.773Z,1484
2016-04-05T10:18:10.855Z,1512
2016-04-05T10:19:10.810Z,1512
2016-04-05T10:20:10.875Z,1564
2016-04-05T10:21:10.862Z,1476
2016-04-05T10:22:10.865Z,1424
2016-04-05T10:23:10.899Z,1380
2016-04-05T10:24:10.916Z,1344
2016-04-05T10:25:10.920Z,1360
2016-04-05T10:26:10.954Z,1424
2016-04-05T10:27:10.972Z,1524
2016-04-05T10:28:10.991Z,1636
2016-04-05T10:29:11.009Z,1764
2016-04-05T10:30:11.027Z,1960
2016-04-05T10:31:11.107Z,2116
2016-04-05T10:32:11.095Z,2228
2016-04-05T10:33:11.098Z,2376
2016-04-05T10:34:11.116Z,2524
2016-04-05T10:35:11.134Z,2680
2016-04-05T10:36:11.153Z,2844
2016-04-05T10:37:11.045Z,2964
2016-04-05T10:38:11.220Z,3060
2016-04-05T10:39:11.270Z,3072
2016-04-05T10:40:11.241Z,3116
2016-04-05T10:41:11.275Z,3236
2016-04-05T10:42:11.294Z,3376
2016-04-05T10:43:11.327Z,3400
2016-04-05T10:44:11.346Z,3364
2016-04-05T10:45:11.333Z,3468
2016-04-05T10:46:11.414Z,3540
2016-04-05T10:47:11.385Z,3600
2016-04-05T10:48:11.435Z,3648
2016-04-05T10:49:11.438Z,3724
2016-04-05T10:50:11.455Z,3900
2016-04-05T10:51:11.489Z,4208
2016-04-05T10:52:11.477Z,4524
2016-04-05T10:53:11.526Z,4880
2016-04-05T10:54:11.529Z,5276
2016-04-05T10:55:11.562Z,5664
2016-04-05T10:56:11.566Z,6252
2016-04-05T10:57:11.615Z,6140
2016-04-05T10:58:11.618Z,6144
2016-04-05T10:59:11.636Z,5832
2016-04-05T11:00:11.639Z,5500
2016-04-05T11:01:11.704Z,5224
2016-04-05T11:02:11.707Z,4952
2016-04-05T11:03:11.725Z,4840
2016-04-05T11:04:11.744Z,4896
2016-04-05T11:05:11.762Z,5100
2016-04-05T11:06:11.765Z,5324
2016-04-05T11:07:11.815Z,5376
2016-04-05T11:08:11.683Z,5404
2016-04-05T11:09:11.926Z,5464
2016-04-05T11:10:11.867Z,5632
2016-04-05T11:11:11.901Z,5864
2016-04-05T11:12:11.778Z,5920
2016-04-05T11:13:11.937Z,5856
2016-04-05T11:14:11.956Z,5764
2016-04-05T11:15:11.990Z,5676
2016-04-05T11:16:12.071Z,5632
2016-04-05T11:17:12.011Z,5720
2016-04-05T11:18:12.061Z,5960
2016-04-05T11:19:12.048Z,6388
2016-04-05T11:20:11.925Z,7056
2016-04-05T11:21:12.100Z,7392
2016-04-05T11:22:12.134Z,7560
2016-04-05T11:23:12.153Z,7828
2016-04-05T11:24:12.170Z,7956
2016-04-05T11:25:12.204Z,7944
2016-04-05T11:26:12.222Z,7812
2016-04-05T11:27:12.256Z,7452
2016-04-05T11:28:12.275Z,7204
2016-04-05T11:29:12.278Z,7048
2016-04-05T11:30:12.296Z,6992
2016-04-05T11:31:12.392Z,6976
2016-04-05T11:32:11.614Z,7000
2016-04-05T11:33:12.210Z,7196
2016-04-05T11:34:12.416Z,7484
2016-04-05T11:35:12.419Z,7700
2016-04-05T11:36:12.468Z,7848
2016-04-05T11:37:12.455Z,7916
2016-04-05T11:38:12.489Z,8052
2016-04-05T11:39:12.507Z,7832
2016-04-05T11:40:12.541Z,7392
2016-04-05T11:41:12.559Z,7060
2016-04-05T11:42:12.578Z,6880
2016-04-05T11:43:12.673Z,6732
2016-04-05T11:44:12.676Z,6468
2016-04-05T11:45:12.648Z,6328
2016-04-05T11:46:12.713Z,6276
2016-04-05T11:47:12.701Z,6212
2016-04-05T11:48:12.719Z,6244
2016-04-05T11:49:12.769Z,6248
2016-04-05T11:50:12.786Z,6456
2016-04-05T11:51:12.803Z,6668
2016-04-05T11:52:12.813Z,6964
2016-04-05T11:53:12.822Z,6924
2016-04-05T11:54:12.863Z,7064
2016-04-05T11:55:12.857Z,7112
2016-04-05T11:56:12.883Z,7096
2016-04-05T11:57:12.899Z,6904
2016-04-05T11:58:12.913Z,6904
2016-04-05T11:59:12.944Z,6588
2016-04-05T12:00:12.929Z,7148
2016-04-05T12:01:12.959Z,6480
2016-04-05T12:02:12.993Z,6096
2016-04-05T12:03:13.010Z,6032
2016-04-05T12:04:13.027Z,6024
2016-04-05T12:05:13.043Z,5860
2016-04-05T12:06:13.078Z,5708
2016-04-05T12:07:13.080Z,5920
2016-04-05T12:08:13.113Z,6560
2016-04-05T12:09:13.162Z,7040
2016-04-05T12:10:13.179Z,6704
2016-04-05T12:11:13.182Z,6420
2016-04-05T12:12:13.232Z,6512
2016-04-05T12:13:13.234Z,6640
2016-04-05T12:14:13.253Z,6652
2016-04-05T12:15:13.272Z,6788
2016-04-05T12:16:13.352Z,6952
2016-04-05T12:17:13.323Z,7084
2016-04-05T12:18:13.342Z,6708
2016-04-05T12:19:13.392Z,6272
2016-04-05T12:20:13.394Z,6000
2016-04-05T12:21:13.413Z,5840
2016-04-05T12:22:13.430Z,5980
2016-04-05T12:23:13.464Z,6404
2016-04-05T12:24:13.483Z,6756
2016-04-05T12:25:13.517Z,6796
2016-04-05T12:26:13.519Z,6576
2016-04-05T12:27:13.554Z,6360
2016-04-05T12:28:13.556Z,6164
2016-04-05T12:29:13.591Z,6064
2016-04-05T12:30:13.624Z,6028
2016-04-05T12:31:13.627Z,5968
2016-04-05T12:32:13.692Z,5896
2016-04-05T12:33:13.726Z,6096
2016-04-05T12:34:13.775Z,6476
2016-04-05T12:35:13.778Z,6716
2016-04-05T12:36:13.906Z,7152
2016-04-05T12:37:13.768Z,7692
2016-04-05T12:38:13.849Z,8104
2016-04-05T12:39:13.821Z,8372
2016-04-05T12:40:13.948Z,8336
2016-04-05T12:41:13.872Z,8124
2016-04-05T12:42:13.937Z,7932
2016-04-05T12:43:13.940Z,7800
2016-04-05T12:44:13.943Z,7600
2016-04-05T12:45:13.962Z,7260
2016-04-05T12:46:13.995Z,6712
2016-04-05T12:47:14.013Z,6036
2016-04-05T12:48:14.048Z,5344
2016-04-05T12:49:14.051Z,4752
2016-04-05T12:50:14.069Z,4400
2016-04-05T12:51:14.119Z,4144
2016-04-05T12:52:14.122Z,3904
2016-04-05T12:53:14.139Z,3704
2016-04-05T12:54:14.502Z,3660
2016-04-05T12:55:14.207Z,3728
2016-04-05T12:56:14.225Z,3700
2016-04-05T12:57:14.243Z,3788
2016-04-05T12:58:14.278Z,3856
2016-04-05T12:59:14.296Z,3760
2016-04-05T13:00:14.345Z,3708
2016-04-05T13:01:14.332Z,3576
2016-04-05T13:02:14.351Z,3496
2016-04-05T13:03:14.368Z,3428
2016-04-05T13:04:14.403Z,3496
2016-04-05T13:05:14.421Z,3484
2016-04-05T13:06:14.423Z,3320
2016-04-05T13:07:14.457Z,3268
2016-04-05T13:08:14.493Z,3308
2016-04-05T13:09:14.542Z,3248
2016-04-05T13:10:14.529Z,3204
2016-04-05T13:11:14.562Z,3100
2016-04-05T13:12:14.565Z,3024
2016-04-05T13:13:14.615Z,2916
2016-04-05T13:14:14.649Z,2744
2016-04-05T13:15:14.636Z,2588
2016-04-05T13:16:14.685Z,2464
2016-04-05T13:17:14.689Z,2444
2016-04-05T13:18:14.722Z,2444
2016-04-05T13:19:14.740Z,2468
2016-04-05T13:20:14.758Z,2528
2016-04-05T13:21:14.777Z,2672
2016-04-05T13:22:14.795Z,2796
2016-04-05T13:23:14.845Z,2760
2016-04-05T13:24:14.832Z,2516
2016-04-05T13:25:14.866Z,2256
2016-04-05T13:26:14.899Z,2044
2016-04-05T13:27:14.950Z,1840
2016-04-05T13:28:14.936Z,1684
2016-04-05T13:29:14.938Z,1520
2016-04-05T13:30:14.988Z,1360
2016-04-05T13:31:14.991Z,1244
2016-04-05T13:32:15.025Z,1156
2016-04-05T13:33:15.044Z,1168
2016-04-05T13:34:15.062Z,1176
2016-04-05T13:35:15.096Z,1160
2016-04-05T13:36:15.115Z,1180
2016-04-05T13:37:15.132Z,1264
2016-04-05T13:38:15.135Z,1388
2016-04-05T13:39:15.184Z,1600
2016-04-05T13:40:15.188Z,1880
2016-04-05T13:41:15.518Z,2228
2016-04-05T13:42:15.256Z,2584
2016-04-05T13:43:15.258Z,2876
2016-04-05T13:44:15.292Z,3256
2016-04-05T13:45:15.295Z,3652
2016-04-05T13:46:15.329Z,3540
2016-04-05T13:47:15.348Z,3424
2016-04-05T13:48:15.381Z,3856
2016-04-05T13:49:15.384Z,4856
2016-04-05T13:50:14.667Z,5348
2016-04-05T13:51:15.436Z,5320
2016-04-05T13:52:15.469Z,6076
2016-04-05T13:53:15.489Z,6396
2016-04-05T13:54:15.506Z,6572